sensor_id;sensor_type;location;lat;lon;timestamp;P1;durP1;ratioP1;P2;durP2;ratioP2
41323;SDS011;27073;51.128;4.220;2022-11-27T00:01:07;13.07;;;5.57;;
41323;SDS011;27073;51.128;4.220;2022-11-27T00:03:37;12.02;;;4.95;;
41323;SDS011;27073;51.128;4.220;2022-11-27T00:06:03;15.32;;;5.78;;
41323;SDS011;27073;51.128;4.220;2022-11-27T00:08:29;15.32;;;5.40;;
41323;SDS011;27073;51.128;4.220;2022-11-27T00:10:55;13.68;;;5.20;;
41323;SDS011;27073;51.128;4.220;2022-11-27T00:13:20;16.42;;;6.15;;
41323;SDS011;27073;51.128;4.220;2022-11-27T00:15:46;10.88;;;5.47;;
41323;SDS011;27073;51.128;4.220;2022-11-27T00:18:12;15.55;;;5.32;;
41323;SDS011;27073;51.128;4.220;2022-11-27T00:20:38;12.45;;;4.95;;
41323;SDS011;27073;51.128;4.220;2022-11-27T00:23:04;14.88;;;6.07;;
41323;SDS011;27073;51.128;4.220;2022-11-27T00:25:30;13.82;;;5.45;;
41323;SDS011;27073;51.128;4.220;2022-11-27T00:27:56;13.90;;;5.05;;
41323;SDS011;27073;51.128;4.220;2022-11-27T00:30:21;16.98;;;4.85;;
41323;SDS011;27073;51.128;4.220;2022-11-27T00:32:47;14.38;;;5.07;;
41323;SDS011;27073;51.128;4.220;2022-11-27T00:35:13;11.10;;;4.78;;
41323;SDS011;27073;51.128;4.220;2022-11-27T00:37:38;14.32;;;4.65;;
41323;SDS011;27073;51.128;4.220;2022-11-27T00:40:04;11.77;;;4.80;;
41323;SDS011;27073;51.128;4.220;2022-11-27T00:42:30;12.40;;;4.60;;
41323;SDS011;27073;51.128;4.220;2022-11-27T00:44:56;14.27;;;4.95;;
41323;SDS011;27073;51.128;4.220;2022-11-27T00:47:22;11.82;;;4.43;;
41323;SDS011;27073;51.128;4.220;2022-11-27T00:49:47;14.65;;;5.05;;
41323;SDS011;27073;51.128;4.220;2022-11-27T00:52:13;14.70;;;4.25;;
41323;SDS011;27073;51.128;4.220;2022-11-27T00:54:38;14.70;;;4.55;;
41323;SDS011;27073;51.128;4.220;2022-11-27T00:57:04;13.68;;;4.68;;
41323;SDS011;27073;51.128;4.220;2022-11-27T00:59:30;12.73;;;4.65;;
41323;SDS011;27073;51.128;4.220;2022-11-27T01:01:56;12.65;;;4.60;;
41323;SDS011;27073;51.128;4.220;2022-11-27T01:04:21;13.40;;;4.55;;
41323;SDS011;27073;51.128;4.220;2022-11-27T01:06:47;16.80;;;3.95;;
41323;SDS011;27073;51.128;4.220;2022-11-27T01:09:13;15.23;;;4.03;;
41323;SDS011;27073;51.128;4.220;2022-11-27T01:11:39;14.07;;;4.03;;
41323;SDS011;27073;51.128;4.220;2022-11-27T01:14:07;10.15;;;3.38;;
41323;SDS011;27073;51.128;4.220;2022-11-27T01:16:39;15.77;;;4.13;;
41323;SDS011;27073;51.128;4.220;2022-11-27T01:19:05;16.17;;;4.05;;
41323;SDS011;27073;51.128;4.220;2022-11-27T01:21:31;9.40;;;3.95;;
41323;SDS011;27073;51.128;4.220;2022-11-27T01:23:58;10.75;;;3.60;;
41323;SDS011;27073;51.128;4.220;2022-11-27T01:26:25;13.30;;;3.97;;
41323;SDS011;27073;51.128;4.220;2022-11-27T01:28:52;12.55;;;4.13;;
41323;SDS011;27073;51.128;4.220;2022-11-27T01:31:21;14.55;;;3.38;;
41323;SDS011;27073;51.128;4.220;2022-11-27T01:33:52;13.43;;;3.58;;
41323;SDS011;27073;51.128;4.220;2022-11-27T01:36:19;13.00;;;3.70;;
41323;SDS011;27073;51.128;4.220;2022-11-27T01:38:45;9.45;;;2.50;;
41323;SDS011;27073;51.128;4.220;2022-11-27T01:41:19;12.13;;;3.03;;
41323;SDS011;27073;51.128;4.220;2022-11-27T01:51:33;12.75;;;3.35;;
41323;SDS011;27073;51.128;4.220;2022-11-27T01:54:15;12.93;;;3.60;;
41323;SDS011;27073;51.128;4.220;2022-11-27T01:56:43;10.57;;;2.83;;
41323;SDS011;27073;51.128;4.220;2022-11-27T01:59:10;13.73;;;3.90;;
41323;SDS011;27073;51.128;4.220;2022-11-27T02:01:36;12.10;;;2.70;;
41323;SDS011;27073;51.128;4.220;2022-11-27T02:04:02;10.02;;;2.55;;
41323;SDS011;27073;51.128;4.220;2022-11-27T02:06:28;13.77;;;2.88;;
41323;SDS011;27073;51.128;4.220;2022-11-27T02:08:54;8.55;;;2.72;;
41323;SDS011;27073;51.128;4.220;2022-11-27T02:11:30;12.07;;;2.72;;
41323;SDS011;27073;51.128;4.220;2022-11-27T02:14:14;12.15;;;3.92;;
41323;SDS011;27073;51.128;4.220;2022-11-27T02:22:20;11.70;;;4.38;;
41323;SDS011;27073;51.128;4.220;2022-11-27T02:30:34;15.30;;;3.03;;
41323;SDS011;27073;51.128;4.220;2022-11-27T02:33:05;12.02;;;3.22;;
41323;SDS011;27073;51.128;4.220;2022-11-27T02:38:07;12.65;;;3.47;;
41323;SDS011;27073;51.128;4.220;2022-11-27T02:40:50;10.98;;;2.80;;
41323;SDS011;27073;51.128;4.220;2022-11-27T02:43:31;11.50;;;2.80;;
41323;SDS011;27073;51.128;4.220;2022-11-27T02:46:01;15.75;;;3.47;;
41323;SDS011;27073;51.128;4.220;2022-11-27T02:48:30;11.90;;;3.03;;
41323;SDS011;27073;51.128;4.220;2022-11-27T02:51:02;10.25;;;2.95;;
41323;SDS011;27073;51.128;4.220;2022-11-27T02:53:32;12.40;;;3.60;;
41323;SDS011;27073;51.128;4.220;2022-11-27T02:56:06;14.43;;;3.42;;
41323;SDS011;27073;51.128;4.220;2022-11-27T02:58:35;17.60;;;2.70;;
41323;SDS011;27073;51.128;4.220;2022-11-27T03:01:02;11.05;;;2.25;;
41323;SDS011;27073;51.128;4.220;2022-11-27T03:03:32;9.38;;;2.55;;
41323;SDS011;27073;51.128;4.220;2022-11-27T03:06:01;12.03;;;2.60;;
41323;SDS011;27073;51.128;4.220;2022-11-27T03:08:37;9.00;;;2.60;;
41323;SDS011;27073;51.128;4.220;2022-11-27T03:11:21;7.75;;;1.90;;
41323;SDS011;27073;51.128;4.220;2022-11-27T03:13:48;7.05;;;2.10;;
41323;SDS011;27073;51.128;4.220;2022-11-27T03:19:07;10.88;;;3.05;;
41323;SDS011;27073;51.128;4.220;2022-11-27T03:21:40;6.40;;;2.08;;
41323;SDS011;27073;51.128;4.220;2022-11-27T03:24:09;8.30;;;2.40;;
41323;SDS011;27073;51.128;4.220;2022-11-27T03:26:36;10.27;;;3.05;;
41323;SDS011;27073;51.128;4.220;2022-11-27T03:29:04;9.95;;;2.42;;
41323;SDS011;27073;51.128;4.220;2022-11-27T03:31:32;9.60;;;2.35;;
41323;SDS011;27073;51.128;4.220;2022-11-27T03:33:58;9.15;;;2.33;;
41323;SDS011;27073;51.128;4.220;2022-11-27T03:36:24;8.00;;;2.33;;
41323;SDS011;27073;51.128;4.220;2022-11-27T03:38:50;6.40;;;1.95;;
41323;SDS011;27073;51.128;4.220;2022-11-27T03:50:21;5.05;;;2.22;;
41323;SDS011;27073;51.128;4.220;2022-11-27T03:53:13;9.85;;;2.40;;
41323;SDS011;27073;51.128;4.220;2022-11-27T03:58:36;7.53;;;2.58;;
41323;SDS011;27073;51.128;4.220;2022-11-27T04:01:09;8.50;;;2.45;;
41323;SDS011;27073;51.128;4.220;2022-11-27T04:03:37;10.60;;;2.50;;
41323;SDS011;27073;51.128;4.220;2022-11-27T04:06:03;8.18;;;3.25;;
41323;SDS011;27073;51.128;4.220;2022-11-27T04:08:29;8.85;;;2.67;;
41323;SDS011;27073;51.128;4.220;2022-11-27T04:10:54;5.72;;;2.20;;
41323;SDS011;27073;51.128;4.220;2022-11-27T04:13:20;5.20;;;2.08;;
41323;SDS011;27073;51.128;4.220;2022-11-27T04:15:46;5.90;;;2.20;;
41323;SDS011;27073;51.128;4.220;2022-11-27T04:18:11;9.23;;;2.47;;
41323;SDS011;27073;51.128;4.220;2022-11-27T04:20:37;7.63;;;2.40;;
41323;SDS011;27073;51.128;4.220;2022-11-27T04:23:03;4.50;;;2.10;;
41323;SDS011;27073;51.128;4.220;2022-11-27T04:25:29;10.75;;;2.58;;
41323;SDS011;27073;51.128;4.220;2022-11-27T04:27:54;7.90;;;2.30;;
41323;SDS011;27073;51.128;4.220;2022-11-27T04:30:20;5.00;;;2.22;;
41323;SDS011;27073;51.128;4.220;2022-11-27T04:32:46;8.32;;;2.33;;
41323;SDS011;27073;51.128;4.220;2022-11-27T04:35:12;8.27;;;2.38;;
41323;SDS011;27073;51.128;4.220;2022-11-27T04:37:38;7.10;;;2.20;;
41323;SDS011;27073;51.128;4.220;2022-11-27T04:40:04;11.35;;;2.58;;
41323;SDS011;27073;51.128;4.220;2022-11-27T04:42:30;10.63;;;3.10;;
41323;SDS011;27073;51.128;4.220;2022-11-27T04:44:56;8.02;;;2.75;;
41323;SDS011;27073;51.128;4.220;2022-11-27T04:47:22;7.60;;;2.30;;
41323;SDS011;27073;51.128;4.220;2022-11-27T04:49:48;9.35;;;3.33;;
41323;SDS011;27073;51.128;4.220;2022-11-27T04:52:13;7.57;;;1.90;;
41323;SDS011;27073;51.128;4.220;2022-11-27T04:54:39;7.65;;;2.58;;
41323;SDS011;27073;51.128;4.220;2022-11-27T04:57:05;9.20;;;2.20;;
41323;SDS011;27073;51.128;4.220;2022-11-27T04:59:31;5.28;;;2.10;;
41323;SDS011;27073;51.128;4.220;2022-11-27T05:01:57;6.53;;;1.98;;
41323;SDS011;27073;51.128;4.220;2022-11-27T05:04:23;9.85;;;2.25;;
41323;SDS011;27073;51.128;4.220;2022-11-27T05:06:48;8.48;;;3.08;;
41323;SDS011;27073;51.128;4.220;2022-11-27T05:09:16;6.03;;;2.05;;
41323;SDS011;27073;51.128;4.220;2022-11-27T05:11:42;9.52;;;2.35;;
41323;SDS011;27073;51.128;4.220;2022-11-27T05:14:08;7.90;;;2.67;;
41323;SDS011;27073;51.128;4.220;2022-11-27T05:16:48;7.82;;;2.10;;
41323;SDS011;27073;51.128;4.220;2022-11-27T05:19:16;7.78;;;2.35;;
41323;SDS011;27073;51.128;4.220;2022-11-27T05:21:43;6.50;;;2.60;;
41323;SDS011;27073;51.128;4.220;2022-11-27T05:24:10;9.25;;;2.20;;
41323;SDS011;27073;51.128;4.220;2022-11-27T05:26:37;6.57;;;2.42;;
41323;SDS011;27073;51.128;4.220;2022-11-27T05:29:04;6.82;;;2.05;;
41323;SDS011;27073;51.128;4.220;2022-11-27T05:31:30;7.63;;;2.10;;
41323;SDS011;27073;51.128;4.220;2022-11-27T05:33:56;5.20;;;2.22;;
41323;SDS011;27073;51.128;4.220;2022-11-27T05:36:22;5.50;;;2.15;;
41323;SDS011;27073;51.128;4.220;2022-11-27T05:38:48;8.32;;;2.60;;
41323;SDS011;27073;51.128;4.220;2022-11-27T05:41:14;9.38;;;2.83;;
41323;SDS011;27073;51.128;4.220;2022-11-27T05:43:39;6.40;;;2.10;;
41323;SDS011;27073;51.128;4.220;2022-11-27T05:46:06;7.47;;;2.15;;
41323;SDS011;27073;51.128;4.220;2022-11-27T05:48:33;7.38;;;2.72;;
41323;SDS011;27073;51.128;4.220;2022-11-27T05:51:00;8.48;;;3.63;;
41323;SDS011;27073;51.128;4.220;2022-11-27T05:53:27;9.68;;;3.13;;
41323;SDS011;27073;51.128;4.220;2022-11-27T05:55:53;6.68;;;2.63;;
41323;SDS011;27073;51.128;4.220;2022-11-27T05:58:18;7.57;;;2.75;;
41323;SDS011;27073;51.128;4.220;2022-11-27T06:00:44;7.75;;;3.05;;
41323;SDS011;27073;51.128;4.220;2022-11-27T06:03:11;9.35;;;2.78;;
41323;SDS011;27073;51.128;4.220;2022-11-27T06:05:39;6.80;;;2.60;;
41323;SDS011;27073;51.128;4.220;2022-11-27T06:08:05;7.82;;;2.55;;
41323;SDS011;27073;51.128;4.220;2022-11-27T06:10:31;6.68;;;2.88;;
41323;SDS011;27073;51.128;4.220;2022-11-27T06:12:57;6.45;;;2.80;;
41323;SDS011;27073;51.128;4.220;2022-11-27T06:15:23;6.80;;;2.90;;
41323;SDS011;27073;51.128;4.220;2022-11-27T06:17:49;5.93;;;2.45;;
41323;SDS011;27073;51.128;4.220;2022-11-27T06:20:15;7.32;;;2.80;;
41323;SDS011;27073;51.128;4.220;2022-11-27T06:22:41;6.05;;;2.80;;
41323;SDS011;27073;51.128;4.220;2022-11-27T06:25:06;7.88;;;2.75;;
41323;SDS011;27073;51.128;4.220;2022-11-27T06:27:34;6.63;;;2.60;;
41323;SDS011;27073;51.128;4.220;2022-11-27T06:30:00;8.13;;;3.20;;
41323;SDS011;27073;51.128;4.220;2022-11-27T06:32:27;9.25;;;3.35;;
41323;SDS011;27073;51.128;4.220;2022-11-27T06:34:53;8.90;;;2.95;;
41323;SDS011;27073;51.128;4.220;2022-11-27T06:37:18;6.47;;;2.85;;
41323;SDS011;27073;51.128;4.220;2022-11-27T06:39:44;7.22;;;3.28;;
41323;SDS011;27073;51.128;4.220;2022-11-27T06:42:12;6.57;;;2.45;;
41323;SDS011;27073;51.128;4.220;2022-11-27T06:44:38;9.88;;;3.38;;
41323;SDS011;27073;51.128;4.220;2022-11-27T06:47:03;9.52;;;2.63;;
41323;SDS011;27073;51.128;4.220;2022-11-27T06:49:29;6.65;;;2.53;;
41323;SDS011;27073;51.128;4.220;2022-11-27T06:51:55;6.63;;;2.95;;
41323;SDS011;27073;51.128;4.220;2022-11-27T06:54:20;5.70;;;2.78;;
41323;SDS011;27073;51.128;4.220;2022-11-27T06:56:48;11.10;;;2.83;;
41323;SDS011;27073;51.128;4.220;2022-11-27T06:59:14;7.25;;;3.08;;
41323;SDS011;27073;51.128;4.220;2022-11-27T07:01:40;9.85;;;3.08;;
41323;SDS011;27073;51.128;4.220;2022-11-27T07:04:08;8.70;;;3.10;;
41323;SDS011;27073;51.128;4.220;2022-11-27T07:06:35;12.68;;;3.25;;
41323;SDS011;27073;51.128;4.220;2022-11-27T07:09:00;9.10;;;2.70;;
41323;SDS011;27073;51.128;4.220;2022-11-27T07:11:27;7.75;;;3.10;;
41323;SDS011;27073;51.128;4.220;2022-11-27T07:13:55;8.80;;;3.42;;
41323;SDS011;27073;51.128;4.220;2022-11-27T07:16:22;7.57;;;3.15;;
41323;SDS011;27073;51.128;4.220;2022-11-27T07:18:49;11.75;;;3.45;;
41323;SDS011;27073;51.128;4.220;2022-11-27T07:21:17;10.57;;;4.05;;
41323;SDS011;27073;51.128;4.220;2022-11-27T07:23:43;8.13;;;3.58;;
41323;SDS011;27073;51.128;4.220;2022-11-27T07:26:13;9.40;;;3.58;;
41323;SDS011;27073;51.128;4.220;2022-11-27T07:28:43;7.63;;;3.45;;
41323;SDS011;27073;51.128;4.220;2022-11-27T07:31:10;9.98;;;3.75;;
41323;SDS011;27073;51.128;4.220;2022-11-27T07:33:37;8.68;;;4.05;;
41323;SDS011;27073;51.128;4.220;2022-11-27T07:36:07;8.95;;;3.15;;
41323;SDS011;27073;51.128;4.220;2022-11-27T07:38:40;10.98;;;3.50;;
41323;SDS011;27073;51.128;4.220;2022-11-27T07:41:07;7.32;;;3.15;;
41323;SDS011;27073;51.128;4.220;2022-11-27T07:43:33;8.65;;;3.10;;
41323;SDS011;27073;51.128;4.220;2022-11-27T07:46:06;8.02;;;3.42;;
41323;SDS011;27073;51.128;4.220;2022-11-27T07:48:37;7.78;;;3.47;;
41323;SDS011;27073;51.128;4.220;2022-11-27T07:51:06;7.75;;;3.67;;
41323;SDS011;27073;51.128;4.220;2022-11-27T07:53:37;8.55;;;4.05;;
41323;SDS011;27073;51.128;4.220;2022-11-27T07:56:04;7.35;;;3.95;;
41323;SDS011;27073;51.128;4.220;2022-11-27T07:58:30;9.25;;;3.45;;
41323;SDS011;27073;51.128;4.220;2022-11-27T08:00:56;9.10;;;4.05;;
41323;SDS011;27073;51.128;4.220;2022-11-27T08:03:22;7.15;;;3.75;;
41323;SDS011;27073;51.128;4.220;2022-11-27T08:05:48;8.65;;;3.70;;
41323;SDS011;27073;51.128;4.220;2022-11-27T08:08:14;8.07;;;4.13;;
41323;SDS011;27073;51.128;4.220;2022-11-27T08:10:39;6.38;;;3.53;;
41323;SDS011;27073;51.128;4.220;2022-11-27T08:13:06;6.85;;;3.35;;
41323;SDS011;27073;51.128;4.220;2022-11-27T08:15:32;8.57;;;3.40;;
41323;SDS011;27073;51.128;4.220;2022-11-27T08:17:58;9.32;;;3.80;;
41323;SDS011;27073;51.128;4.220;2022-11-27T08:20:24;7.00;;;3.42;;
41323;SDS011;27073;51.128;4.220;2022-11-27T08:22:51;8.73;;;3.92;;
41323;SDS011;27073;51.128;4.220;2022-11-27T08:25:16;8.45;;;4.15;;
41323;SDS011;27073;51.128;4.220;2022-11-27T08:27:42;9.75;;;4.07;;
41323;SDS011;27073;51.128;4.220;2022-11-27T08:30:09;7.32;;;3.42;;
41323;SDS011;27073;51.128;4.220;2022-11-27T08:32:38;8.30;;;4.25;;
41323;SDS011;27073;51.128;4.220;2022-11-27T08:35:04;7.82;;;3.85;;
41323;SDS011;27073;51.128;4.220;2022-11-27T08:37:31;5.95;;;4.20;;
41323;SDS011;27073;51.128;4.220;2022-11-27T08:39:57;8.88;;;3.28;;
41323;SDS011;27073;51.128;4.220;2022-11-27T08:42:22;8.52;;;3.97;;
41323;SDS011;27073;51.128;4.220;2022-11-27T08:44:48;8.32;;;3.30;;
41323;SDS011;27073;51.128;4.220;2022-11-27T08:47:13;7.75;;;3.25;;
41323;SDS011;27073;51.128;4.220;2022-11-27T08:49:41;9.38;;;3.20;;
41323;SDS011;27073;51.128;4.220;2022-11-27T08:52:07;10.75;;;4.10;;
41323;SDS011;27073;51.128;4.220;2022-11-27T08:54:33;6.03;;;3.50;;
41323;SDS011;27073;51.128;4.220;2022-11-27T08:56:59;10.15;;;4.10;;
41323;SDS011;27073;51.128;4.220;2022-11-27T08:59:25;5.28;;;3.30;;
41323;SDS011;27073;51.128;4.220;2022-11-27T09:01:50;7.43;;;3.60;;
41323;SDS011;27073;51.128;4.220;2022-11-27T09:04:16;7.90;;;3.60;;
41323;SDS011;27073;51.128;4.220;2022-11-27T09:06:42;7.38;;;4.32;;
41323;SDS011;27073;51.128;4.220;2022-11-27T09:09:07;7.47;;;3.88;;
41323;SDS011;27073;51.128;4.220;2022-11-27T09:11:33;10.20;;;3.58;;
41323;SDS011;27073;51.128;4.220;2022-11-27T09:14:01;6.93;;;3.40;;
41323;SDS011;27073;51.128;4.220;2022-11-27T09:16:27;6.93;;;3.72;;
41323;SDS011;27073;51.128;4.220;2022-11-27T09:18:54;9.13;;;3.90;;
41323;SDS011;27073;51.128;4.220;2022-11-27T09:21:21;8.82;;;4.03;;
41323;SDS011;27073;51.128;4.220;2022-11-27T09:23:51;8.02;;;3.78;;
41323;SDS011;27073;51.128;4.220;2022-11-27T09:26:17;9.68;;;4.18;;
41323;SDS011;27073;51.128;4.220;2022-11-27T09:28:43;10.70;;;4.60;;
41323;SDS011;27073;51.128;4.220;2022-11-27T09:31:10;8.27;;;4.20;;
41323;SDS011;27073;51.128;4.220;2022-11-27T09:33:38;7.50;;;3.58;;
41323;SDS011;27073;51.128;4.220;2022-11-27T09:36:12;9.40;;;4.25;;
41323;SDS011;27073;51.128;4.220;2022-11-27T09:38:39;8.50;;;4.53;;
41323;SDS011;27073;51.128;4.220;2022-11-27T09:43:39;8.95;;;4.10;;
41323;SDS011;27073;51.128;4.220;2022-11-27T09:46:19;9.48;;;5.28;;
41323;SDS011;27073;51.128;4.220;2022-11-27T09:48:55;7.97;;;4.55;;
41323;SDS011;27073;51.128;4.220;2022-11-27T09:51:27;10.93;;;4.15;;
41323;SDS011;27073;51.128;4.220;2022-11-27T09:54:12;8.15;;;4.82;;
41323;SDS011;27073;51.128;4.220;2022-11-27T09:56:44;8.75;;;4.57;;
41323;SDS011;27073;51.128;4.220;2022-11-27T10:01:42;9.98;;;5.35;;
41323;SDS011;27073;51.128;4.220;2022-11-27T10:04:10;10.20;;;5.00;;
41323;SDS011;27073;51.128;4.220;2022-11-27T10:06:45;9.23;;;4.68;;
41323;SDS011;27073;51.128;4.220;2022-11-27T10:30:54;8.30;;;4.25;;
41323;SDS011;27073;51.128;4.220;2022-11-27T10:33:26;8.38;;;4.65;;
41323;SDS011;27073;51.128;4.220;2022-11-27T10:36:00;9.45;;;4.55;;
41323;SDS011;27073;51.128;4.220;2022-11-27T10:38:26;18.10;;;4.93;;
41323;SDS011;27073;51.128;4.220;2022-11-27T10:43:23;8.07;;;4.13;;
41323;SDS011;27073;51.128;4.220;2022-11-27T10:45:56;10.95;;;4.63;;
41323;SDS011;27073;51.128;4.220;2022-11-27T10:48:32;6.10;;;3.95;;
41323;SDS011;27073;51.128;4.220;2022-11-27T10:50:58;9.60;;;4.07;;
41323;SDS011;27073;51.128;4.220;2022-11-27T10:53:28;8.05;;;4.38;;
41323;SDS011;27073;51.128;4.220;2022-11-27T11:01:14;7.70;;;4.45;;
41323;SDS011;27073;51.128;4.220;2022-11-27T11:03:41;10.05;;;4.55;;
41323;SDS011;27073;51.128;4.220;2022-11-27T11:06:28;9.82;;;4.40;;
41323;SDS011;27073;51.128;4.220;2022-11-27T11:09:06;9.68;;;4.65;;
41323;SDS011;27073;51.128;4.220;2022-11-27T11:11:39;11.73;;;5.40;;
41323;SDS011;27073;51.128;4.220;2022-11-27T11:14:18;7.57;;;4.68;;
41323;SDS011;27073;51.128;4.220;2022-11-27T11:16:47;8.63;;;4.32;;
41323;SDS011;27073;51.128;4.220;2022-11-27T11:19:30;8.05;;;4.53;;
41323;SDS011;27073;51.128;4.220;2022-11-27T11:22:03;7.38;;;4.18;;
41323;SDS011;27073;51.128;4.220;2022-11-27T11:24:36;10.43;;;5.53;;
41323;SDS011;27073;51.128;4.220;2022-11-27T11:27:15;11.45;;;5.35;;
41323;SDS011;27073;51.128;4.220;2022-11-27T11:29:56;8.70;;;4.85;;
41323;SDS011;27073;51.128;4.220;2022-11-27T11:32:28;8.10;;;5.13;;
41323;SDS011;27073;51.128;4.220;2022-11-27T11:37:27;12.52;;;4.60;;
41323;SDS011;27073;51.128;4.220;2022-11-27T11:40:07;11.85;;;4.63;;
41323;SDS011;27073;51.128;4.220;2022-11-27T11:42:59;8.55;;;5.00;;
41323;SDS011;27073;51.128;4.220;2022-11-27T11:45:27;8.73;;;4.43;;
41323;SDS011;27073;51.128;4.220;2022-11-27T11:47:58;8.48;;;4.55;;
41323;SDS011;27073;51.128;4.220;2022-11-27T11:50:44;8.40;;;5.50;;
41323;SDS011;27073;51.128;4.220;2022-11-27T12:09:35;9.90;;;5.63;;
41323;SDS011;27073;51.128;4.220;2022-11-27T12:12:16;9.23;;;4.55;;
41323;SDS011;27073;51.128;4.220;2022-11-27T12:14:58;8.63;;;5.45;;
41323;SDS011;27073;51.128;4.220;2022-11-27T12:18:12;9.70;;;5.18;;
41323;SDS011;27073;51.128;4.220;2022-11-27T12:34:45;10.93;;;5.22;;
41323;SDS011;27073;51.128;4.220;2022-11-27T12:37:34;8.38;;;5.03;;
41323;SDS011;27073;51.128;4.220;2022-11-27T12:43:13;7.55;;;4.35;;
41323;SDS011;27073;51.128;4.220;2022-11-27T12:48:20;9.13;;;5.38;;
41323;SDS011;27073;51.128;4.220;2022-11-27T12:50:52;10.27;;;4.72;;
41323;SDS011;27073;51.128;4.220;2022-11-27T12:58:54;6.45;;;4.15;;
41323;SDS011;27073;51.128;4.220;2022-11-27T13:01:24;6.10;;;4.13;;
41323;SDS011;27073;51.128;4.220;2022-11-27T13:07:16;6.70;;;3.92;;
41323;SDS011;27073;51.128;4.220;2022-11-27T13:10:05;8.85;;;4.20;;
41323;SDS011;27073;51.128;4.220;2022-11-27T13:12:35;8.52;;;4.25;;
41323;SDS011;27073;51.128;4.220;2022-11-27T13:15:07;7.43;;;3.97;;
41323;SDS011;27073;51.128;4.220;2022-11-27T13:17:53;7.38;;;3.70;;
41323;SDS011;27073;51.128;4.220;2022-11-27T13:20:28;6.07;;;4.25;;
41323;SDS011;27073;51.128;4.220;2022-11-27T13:22:57;8.55;;;4.20;;
41323;SDS011;27073;51.128;4.220;2022-11-27T13:25:23;6.13;;;3.80;;
41323;SDS011;27073;51.128;4.220;2022-11-27T13:27:50;6.40;;;4.10;;
41323;SDS011;27073;51.128;4.220;2022-11-27T13:30:22;9.20;;;3.90;;
41323;SDS011;27073;51.128;4.220;2022-11-27T13:32:51;11.18;;;4.65;;
41323;SDS011;27073;51.128;4.220;2022-11-27T13:38:10;6.68;;;4.55;;
41323;SDS011;27073;51.128;4.220;2022-11-27T13:40:44;8.82;;;4.03;;
41323;SDS011;27073;51.128;4.220;2022-11-27T13:43:26;6.50;;;3.75;;
41323;SDS011;27073;51.128;4.220;2022-11-27T13:46:43;6.78;;;4.13;;
41323;SDS011;27073;51.128;4.220;2022-11-27T13:48:47;6.57;;;3.88;;
41323;SDS011;27073;51.128;4.220;2022-11-27T13:51:22;8.00;;;3.60;;
41323;SDS011;27073;51.128;4.220;2022-11-27T13:53:51;6.75;;;4.15;;
41323;SDS011;27073;51.128;4.220;2022-11-27T13:56:26;6.15;;;4.25;;
41323;SDS011;27073;51.128;4.220;2022-11-27T13:58:55;8.25;;;4.38;;
41323;SDS011;27073;51.128;4.220;2022-11-27T14:01:21;5.95;;;3.88;;
41323;SDS011;27073;51.128;4.220;2022-11-27T14:03:49;8.10;;;3.85;;
41323;SDS011;27073;51.128;4.220;2022-11-27T14:09:05;6.88;;;3.90;;
41323;SDS011;27073;51.128;4.220;2022-11-27T14:11:32;7.97;;;3.72;;
41323;SDS011;27073;51.128;4.220;2022-11-27T14:13:58;8.45;;;4.60;;
41323;SDS011;27073;51.128;4.220;2022-11-27T14:16:33;8.35;;;3.92;;
41323;SDS011;27073;51.128;4.220;2022-11-27T14:19:04;7.63;;;3.58;;
41323;SDS011;27073;51.128;4.220;2022-11-27T14:21:47;6.65;;;3.92;;
41323;SDS011;27073;51.128;4.220;2022-11-27T14:24:24;7.25;;;3.92;;
41323;SDS011;27073;51.128;4.220;2022-11-27T14:27:19;7.57;;;3.67;;
41323;SDS011;27073;51.128;4.220;2022-11-27T14:29:49;5.82;;;3.40;;
41323;SDS011;27073;51.128;4.220;2022-11-27T14:32:16;6.45;;;3.63;;
41323;SDS011;27073;51.128;4.220;2022-11-27T14:34:43;5.97;;;3.80;;
41323;SDS011;27073;51.128;4.220;2022-11-27T14:37:23;7.55;;;4.32;;
41323;SDS011;27073;51.128;4.220;2022-11-27T14:39:52;7.45;;;3.15;;
41323;SDS011;27073;51.128;4.220;2022-11-27T14:42:25;5.50;;;3.42;;
41323;SDS011;27073;51.128;4.220;2022-11-27T14:45:02;5.63;;;3.70;;
41323;SDS011;27073;51.128;4.220;2022-11-27T14:47:29;5.93;;;4.03;;
41323;SDS011;27073;51.128;4.220;2022-11-27T14:49:55;6.50;;;4.28;;
41323;SDS011;27073;51.128;4.220;2022-11-27T14:52:22;7.00;;;3.88;;
41323;SDS011;27073;51.128;4.220;2022-11-27T14:54:48;9.68;;;4.45;;
41323;SDS011;27073;51.128;4.220;2022-11-27T14:57:22;7.30;;;4.03;;
41323;SDS011;27073;51.128;4.220;2022-11-27T14:59:59;6.50;;;4.28;;
41323;SDS011;27073;51.128;4.220;2022-11-27T15:02:29;7.60;;;4.50;;
41323;SDS011;27073;51.128;4.220;2022-11-27T15:05:05;13.50;;;7.38;;
41323;SDS011;27073;51.128;4.220;2022-11-27T15:07:31;15.90;;;7.47;;
41323;SDS011;27073;51.128;4.220;2022-11-27T15:10:01;19.77;;;10.27;;
41323;SDS011;27073;51.128;4.220;2022-11-27T15:12:32;46.78;;;23.80;;
41323;SDS011;27073;51.128;4.220;2022-11-27T15:17:38;6.72;;;4.90;;
41323;SDS011;27073;51.128;4.220;2022-11-27T15:20:14;8.63;;;5.50;;
41323;SDS011;27073;51.128;4.220;2022-11-27T15:22:48;12.98;;;8.75;;
41323;SDS011;27073;51.128;4.220;2022-11-27T15:27:58;10.60;;;7.82;;
41323;SDS011;27073;51.128;4.220;2022-11-27T15:30:24;12.68;;;10.20;;
41323;SDS011;27073;51.128;4.220;2022-11-27T15:32:51;12.90;;;10.05;;
41323;SDS011;27073;51.128;4.220;2022-11-27T15:37:55;7.82;;;6.22;;
41323;SDS011;27073;51.128;4.220;2022-11-27T15:40:32;10.00;;;8.27;;
41323;SDS011;27073;51.128;4.220;2022-11-27T15:43:00;6.57;;;5.60;;
41323;SDS011;27073;51.128;4.220;2022-11-27T15:45:27;6.93;;;6.22;;
41323;SDS011;27073;51.128;4.220;2022-11-27T15:47:58;15.90;;;12.75;;
41323;SDS011;27073;51.128;4.220;2022-11-27T15:50:25;10.38;;;8.93;;
41323;SDS011;27073;51.128;4.220;2022-11-27T15:52:52;8.80;;;6.53;;
41323;SDS011;27073;51.128;4.220;2022-11-27T15:55:18;10.15;;;5.72;;
41323;SDS011;27073;51.128;4.220;2022-11-27T15:57:44;7.95;;;6.28;;
41323;SDS011;27073;51.128;4.220;2022-11-27T16:00:10;9.13;;;7.47;;
41323;SDS011;27073;51.128;4.220;2022-11-27T16:02:37;11.27;;;8.13;;
41323;SDS011;27073;51.128;4.220;2022-11-27T16:05:03;10.05;;;6.45;;
41323;SDS011;27073;51.128;4.220;2022-11-27T16:07:30;8.68;;;5.30;;
41323;SDS011;27073;51.128;4.220;2022-11-27T16:09:56;20.75;;;14.02;;
41323;SDS011;27073;51.128;4.220;2022-11-27T16:12:21;33.00;;;21.30;;
41323;SDS011;27073;51.128;4.220;2022-11-27T16:14:47;16.17;;;10.88;;
41323;SDS011;27073;51.128;4.220;2022-11-27T16:17:13;15.70;;;9.25;;
41323;SDS011;27073;51.128;4.220;2022-11-27T16:19:39;20.58;;;11.63;;
41323;SDS011;27073;51.128;4.220;2022-11-27T16:22:04;19.48;;;10.77;;
41323;SDS011;27073;51.128;4.220;2022-11-27T16:24:30;14.50;;;10.73;;
41323;SDS011;27073;51.128;4.220;2022-11-27T16:26:56;20.10;;;17.10;;
41323;SDS011;27073;51.128;4.220;2022-11-27T16:29:22;10.65;;;8.75;;
41323;SDS011;27073;51.128;4.220;2022-11-27T16:31:47;13.40;;;9.93;;
41323;SDS011;27073;51.128;4.220;2022-11-27T16:34:14;7.90;;;6.47;;
41323;SDS011;27073;51.128;4.220;2022-11-27T16:36:41;10.68;;;7.10;;
41323;SDS011;27073;51.128;4.220;2022-11-27T16:39:12;10.60;;;5.40;;
41323;SDS011;27073;51.128;4.220;2022-11-27T16:41:38;10.40;;;6.50;;
41323;SDS011;27073;51.128;4.220;2022-11-27T16:44:08;14.73;;;12.85;;
41323;SDS011;27073;51.128;4.220;2022-11-27T16:46:36;15.18;;;10.88;;
41323;SDS011;27073;51.128;4.220;2022-11-27T16:49:03;12.25;;;7.50;;
41323;SDS011;27073;51.128;4.220;2022-11-27T16:51:33;10.55;;;8.38;;
41323;SDS011;27073;51.128;4.220;2022-11-27T16:54:02;19.02;;;14.80;;
41323;SDS011;27073;51.128;4.220;2022-11-27T16:56:30;10.40;;;8.20;;
41323;SDS011;27073;51.128;4.220;2022-11-27T16:58:57;8.57;;;5.38;;
41323;SDS011;27073;51.128;4.220;2022-11-27T17:01:24;10.00;;;6.05;;
41323;SDS011;27073;51.128;4.220;2022-11-27T17:04:03;10.00;;;7.38;;
41323;SDS011;27073;51.128;4.220;2022-11-27T17:06:31;6.38;;;4.75;;